Virtual Washington ARTCC

Weather

KBWI 190954Z 24003KT 10SM CLR M04/M06 A3018 RMK AO2 SLP222 T10441056
KDCA 190952Z 22003KT 10SM FEW250 00/M05 A3020 RMK AO2 SLP227 T00001050
KIAD 190952Z 00000KT 10SM FEW250 M04/M06 A3019 RMK AO2 SLP224 T10441056
KORF 190951Z 22003KT 10SM CLR M01/M02 A3021 RMK AO2 SLP230 T10111022
KRDU 190951Z 08003KT 10SM SCT250 M02/M03 A3019 RMK AO2 SLP224 T10221033

TOP FIVE CONTROLLERS


We're sorry, this feature is currently unavailable.

Events



ZDC Activity

No controllers online.

News



The information contained on all pages of this website is to be used for flight simulation purposes only on the VATSIM network. It is not intended nor should it be used for real world navigation.This site is not affiliated with the FAA, the actual Washington Center or any governing aviation body. All content contained herein is approved only for use on the VATSIM network. ©2016 Virtual Washington ARTCC -- Source Code © 2016-2017 W. Guisbond and R. Rump.
By using this website you agree to all VATSIM Privacy Regulations as can be found on https://www.vatsim.net/documents/privacy-policy. This website uses cookie$